createdAt,value
2018-02-05T00:00:00.660Z,86.08
2018-02-05T00:00:41.250Z,86.18
2018-02-05T00:01:21.815Z,86.27
2018-02-05T00:02:02.366Z,86.18
2018-02-05T00:02:42.977Z,86.55
2018-02-05T00:03:23.606Z,86.65
2018-02-05T00:04:04.149Z,86.36
2018-02-05T00:04:44.724Z,86.55
2018-02-05T00:05:25.238Z,86.65
2018-02-05T00:06:05.810Z,86.46
2018-02-05T00:06:46.416Z,86.46
2018-02-05T00:07:26.974Z,86.55
2018-02-05T00:08:07.519Z,86.55
2018-02-05T00:08:48.102Z,86.93
2018-02-05T00:09:28.673Z,86.36
2018-02-05T00:10:09.201Z,86.83
2018-02-05T00:10:50.037Z,86.65
2018-02-05T00:11:30.578Z,87.12
2018-02-05T00:12:11.161Z,86.83
2018-02-05T00:12:51.680Z,86.74
2018-02-05T00:13:32.241Z,86.83
2018-02-05T00:14:12.872Z,87.02
2018-02-05T00:14:53.443Z,86.93
2018-02-05T00:15:34.041Z,87.02
2018-02-05T00:16:14.627Z,87.12
2018-02-05T00:16:55.181Z,87.02
2018-02-05T00:17:35.712Z,87.02
2018-02-05T00:18:16.316Z,87.12
2018-02-05T00:18:56.951Z,86.93
2018-02-05T00:19:37.567Z,86.83
2018-02-05T00:20:18.166Z,87.12
2018-02-05T00:20:58.729Z,86.93
2018-02-05T00:21:39.288Z,86.83
2018-02-05T00:22:19.932Z,87.12
2018-02-05T00:23:00.534Z,86.93
2018-02-05T00:23:41.107Z,86.93
2018-02-05T00:24:21.657Z,87.02
2018-02-05T00:25:02.211Z,87.02
2018-02-05T00:25:42.781Z,86.93
2018-02-05T00:26:23.357Z,86.93
2018-02-05T00:27:03.926Z,86.65
2018-02-05T00:27:44.500Z,86.74
2018-02-05T00:28:25.097Z,87.12
2018-02-05T00:29:05.839Z,87.12
2018-02-05T00:29:46.438Z,86.93
2018-02-05T00:30:27.071Z,86.74
2018-02-05T00:31:07.632Z,87.02
2018-02-05T00:31:48.200Z,86.74
2018-02-05T00:32:28.761Z,86.93
2018-02-05T00:33:09.338Z,86.93
2018-02-05T00:33:49.888Z,87.02
2018-02-05T00:34:30.423Z,86.83
2018-02-05T00:35:10.967Z,86.83
2018-02-05T00:35:51.502Z,86.65
2018-02-05T00:36:32.320Z,87.02
2018-02-05T00:37:12.876Z,86.65
2018-02-05T00:37:53.467Z,87.02
2018-02-05T00:38:34.036Z,87.12
2018-02-05T00:39:14.664Z,87.02
2018-02-05T00:39:55.220Z,87.12
2018-02-05T00:40:35.786Z,86.83
2018-02-05T00:41:16.344Z,86.93
2018-02-05T00:41:56.908Z,86.93
2018-02-05T00:42:37.509Z,87.31
2018-02-05T00:43:18.136Z,87.4
2018-02-05T00:43:58.673Z,87.4
2018-02-05T00:44:39.300Z,87.31
2018-02-05T00:45:19.910Z,87.21
2018-02-05T00:46:00.450Z,87.69
2018-02-05T00:46:41.006Z,86.83
2018-02-05T00:47:21.556Z,87.21
2018-02-05T00:48:02.146Z,87.21
2018-02-05T00:48:42.704Z,87.69
2018-02-05T00:49:23.282Z,87.02
2018-02-05T00:50:03.854Z,87.21
2018-02-05T00:50:44.436Z,87.59
2018-02-05T00:51:25.008Z,87.31
2018-02-05T00:52:05.552Z,87.59
2018-02-05T00:52:46.088Z,87.5
2018-02-05T00:53:26.744Z,87.5
2018-02-05T00:54:07.356Z,87.59
2018-02-05T00:54:47.927Z,87.5
2018-02-05T00:55:28.454Z,87.69
2018-02-05T00:56:08.998Z,87.21
2018-02-05T00:56:49.550Z,87.4
2018-02-05T00:57:30.097Z,87.31
2018-02-05T00:58:10.677Z,87.31
2018-02-05T00:58:51.249Z,87.12
2018-02-05T00:59:31.820Z,87.5
2018-02-05T01:00:12.468Z,87.21
2018-02-05T01:00:53.070Z,87.02
2018-02-05T01:01:33.632Z,87.21
2018-02-05T01:02:14.197Z,87.5
2018-02-05T01:02:54.728Z,87.69
2018-02-05T01:03:35.279Z,87.4
2018-02-05T01:04:15.850Z,87.88
2018-02-05T01:04:56.445Z,87.69
2018-02-05T01:05:36.976Z,87.88
2018-02-05T01:06:17.582Z,87.69
2018-02-05T01:06:58.183Z,87.4
2018-02-05T01:07:45.700Z,87.5
2018-02-05T01:08:26.298Z,87.5
2018-02-05T01:09:06.831Z,87.69
2018-02-05T01:09:47.439Z,87.59
2018-02-05T01:10:28.039Z,87.69
2018-02-05T01:11:08.611Z,87.21
2018-02-05T01:11:49.226Z,87.12
2018-02-05T01:12:29.784Z,87.21
2018-02-05T01:13:10.339Z,87.21
2018-02-05T01:13:50.910Z,87.02
2018-02-05T01:14:31.442Z,87.12
2018-02-05T01:15:12.005Z,87.12
2018-02-05T01:15:52.563Z,87.21
2018-02-05T01:16:33.120Z,86.83
2018-02-05T01:17:13.667Z,87.02
2018-02-05T01:17:54.258Z,87.02
2018-02-05T01:18:34.867Z,87.02
2018-02-05T01:19:15.420Z,86.93
2018-02-05T01:19:55.992Z,86.83
2018-02-05T01:20:36.557Z,87.12
2018-02-05T01:21:17.126Z,86.65
2018-02-05T01:21:57.724Z,86.65
2018-02-05T01:22:38.275Z,86.93
2018-02-05T01:23:18.816Z,86.93
2018-02-05T01:23:59.407Z,86.55
2018-02-05T01:24:40.024Z,86.65
2018-02-05T01:25:20.515Z,86.93
2018-02-05T01:26:01.085Z,86.93
2018-02-05T01:26:41.640Z,87.12
2018-02-05T01:27:22.255Z,87.12
2018-02-05T01:28:02.861Z,87.02
2018-02-05T01:28:43.418Z,87.31
2018-02-05T01:29:24.012Z,87.31
2018-02-05T01:30:04.529Z,86.93
2018-02-05T01:30:45.090Z,87.02
2018-02-05T01:31:25.689Z,86.93
2018-02-05T01:32:06.309Z,87.02
2018-02-05T01:32:46.849Z,87.02
2018-02-05T01:33:27.393Z,87.02
2018-02-05T01:34:08.016Z,86.93
2018-02-05T01:34:48.644Z,87.12
2018-02-05T01:35:29.227Z,86.93
2018-02-05T01:36:09.815Z,87.12
2018-02-05T01:36:50.435Z,86.83
2018-02-05T01:37:31.021Z,87.21
2018-02-05T01:38:11.571Z,87.02
2018-02-05T01:38:52.209Z,86.83
2018-02-05T01:39:32.804Z,87.12
2018-02-05T01:40:13.377Z,86.55
2018-02-05T01:40:53.938Z,86.65
2018-02-05T01:41:34.548Z,86.65
2018-02-05T01:42:15.057Z,86.65
2018-02-05T01:42:55.603Z,86.93
2018-02-05T01:43:36.147Z,87.02
2018-02-05T01:44:16.723Z,87.02
2018-02-05T01:44:57.278Z,86.83
2018-02-05T01:45:37.828Z,86.83
2018-02-05T01:46:18.420Z,86.83
2018-02-05T01:46:58.944Z,87.12
2018-02-05T01:47:39.512Z,87.21
2018-02-05T01:48:20.091Z,87.5
2018-02-05T01:49:00.652Z,87.31
2018-02-05T01:49:41.230Z,87.4
2018-02-05T01:50:21.755Z,87.31
2018-02-05T01:51:02.308Z,87.02
2018-02-05T01:51:42.891Z,87.12
2018-02-05T01:52:23.501Z,87.02
2018-02-05T01:53:04.065Z,87.21
2018-02-05T01:53:44.622Z,87.31
2018-02-05T01:54:25.145Z,87.12
2018-02-05T01:55:05.724Z,87.31
2018-02-05T01:55:46.270Z,87.21
2018-02-05T01:56:26.845Z,87.21
2018-02-05T01:57:07.474Z,87.12
2018-02-05T01:57:48.033Z,87.31
2018-02-05T01:58:28.605Z,87.31
2018-02-05T01:59:09.156Z,87.31
2018-02-05T01:59:49.725Z,87.59
2018-02-05T02:00:30.297Z,87.69
2018-02-05T02:01:10.873Z,88.07
2018-02-05T02:01:51.432Z,87.69
2018-02-05T02:02:31.990Z,87.78
2018-02-05T02:03:12.556Z,87.88
2018-02-05T02:03:53.149Z,88.17
2018-02-05T02:04:33.720Z,87.69
2018-02-05T02:05:14.341Z,87.69
2018-02-05T02:05:54.856Z,87.88
2018-02-05T02:06:35.507Z,87.69
2018-02-05T02:07:16.094Z,87.88
2018-02-05T02:07:56.654Z,87.88
2018-02-05T02:08:37.266Z,88.07
2018-02-05T02:09:17.808Z,87.78
2018-02-05T02:09:58.416Z,88.07
2018-02-05T02:10:38.962Z,87.69
2018-02-05T02:11:19.519Z,87.69
2018-02-05T02:12:00.081Z,87.59
2018-02-05T02:12:40.619Z,87.78
2018-02-05T02:13:21.160Z,87.78
2018-02-05T02:14:01.762Z,88.07
2018-02-05T02:14:42.402Z,87.69
2018-02-05T02:15:23.007Z,87.98
2018-02-05T02:16:03.541Z,87.69
2018-02-05T02:16:44.106Z,87.88
2018-02-05T02:17:24.645Z,87.69
2018-02-05T02:18:05.269Z,87.69
2018-02-05T02:18:45.809Z,87.59
2018-02-05T02:19:26.365Z,87.12
2018-02-05T02:20:06.935Z,87.31
2018-02-05T02:20:47.485Z,87.12
2018-02-05T02:21:28.063Z,87.4
2018-02-05T02:22:08.647Z,87.4
2018-02-05T02:22:49.214Z,87.4
2018-02-05T02:23:29.805Z,87.12
2018-02-05T02:24:10.350Z,86.83
2018-02-05T02:24:50.926Z,87.12
2018-02-05T02:25:31.457Z,86.83
2018-02-05T02:26:12.002Z,86.93
2018-02-05T02:26:52.564Z,86.93
2018-02-05T02:27:33.110Z,86.93
2018-02-05T02:28:13.657Z,86.83
2018-02-05T02:28:54.212Z,86.55
2018-02-05T02:29:34.778Z,86.83
2018-02-05T02:30:15.364Z,86.74
2018-02-05T02:30:55.925Z,87.02
2018-02-05T02:31:36.478Z,87.12
2018-02-05T02:32:17.041Z,86.83
2018-02-05T02:32:57.599Z,86.83
2018-02-05T02:33:38.222Z,86.65
2018-02-05T02:34:18.789Z,86.93
2018-02-05T02:34:59.341Z,86.74
2018-02-05T02:35:39.905Z,86.36
2018-02-05T02:36:20.444Z,86.74
2018-02-05T02:37:00.997Z,86.83
2018-02-05T02:37:41.547Z,86.93
2018-02-05T02:38:22.110Z,86.93
2018-02-05T02:39:02.655Z,87.02
2018-02-05T02:39:43.237Z,87.12
2018-02-05T02:40:23.794Z,86.93
2018-02-05T02:41:04.373Z,87.02
2018-02-05T02:41:44.926Z,86.74
2018-02-05T02:42:25.498Z,86.93
2018-02-05T02:43:06.034Z,87.12
2018-02-05T02:43:46.587Z,86.65
2018-02-05T02:44:27.189Z,87.02
2018-02-05T02:45:07.743Z,86.93
2018-02-05T02:45:48.294Z,86.65
2018-02-05T02:46:28.856Z,86.74
2018-02-05T02:47:09.408Z,86.83
2018-02-05T02:47:49.991Z,86.55
2018-02-05T02:48:30.493Z,86.83
2018-02-05T02:49:11.075Z,86.74
2018-02-05T02:49:51.623Z,86.83
2018-02-05T02:50:32.197Z,87.02
2018-02-05T02:51:12.826Z,86.93
2018-02-05T02:51:53.401Z,87.02
2018-02-05T02:52:33.929Z,86.93
2018-02-05T02:53:14.486Z,86.65
2018-02-05T02:53:55.027Z,86.93
2018-02-05T02:54:35.575Z,86.83
2018-02-05T02:55:16.111Z,86.83
2018-02-05T02:55:56.668Z,86.51
2018-02-05T02:56:37.223Z,86.83
2018-02-05T02:57:17.846Z,86.93
2018-02-05T02:57:58.407Z,86.55
2018-02-05T02:58:38.957Z,86.6
2018-02-05T02:59:19.511Z,86.83
2018-02-05T03:00:00.094Z,86.65
2018-02-05T03:00:40.647Z,86.93
2018-02-05T03:01:21.195Z,87.12
2018-02-05T03:02:01.775Z,86.98
2018-02-05T03:02:42.338Z,86.93
2018-02-05T03:03:22.891Z,86.74
2018-02-05T03:04:03.440Z,86.83
2018-02-05T03:04:44.010Z,86.83
2018-02-05T03:05:24.587Z,86.83
2018-02-05T03:06:05.121Z,86.93
2018-02-05T03:06:45.693Z,86.74
2018-02-05T03:07:26.224Z,87.12
2018-02-05T03:08:06.795Z,87.02
2018-02-05T03:08:47.341Z,86.74
2018-02-05T03:09:27.916Z,86.83
2018-02-05T03:10:08.456Z,86.79
2018-02-05T03:10:49.002Z,86.83
2018-02-05T03:11:29.544Z,86.79
2018-02-05T03:12:10.117Z,86.83
2018-02-05T03:12:50.633Z,86.93
2018-02-05T03:13:31.202Z,86.98
2018-02-05T03:14:11.760Z,86.7
2018-02-05T03:14:52.305Z,86.89
2018-02-05T03:15:32.854Z,86.46
2018-02-05T03:16:13.439Z,86.98
2018-02-05T03:16:53.988Z,87.02
2018-02-05T03:17:34.579Z,86.89
2018-02-05T03:18:15.101Z,87.02
2018-02-05T03:18:55.646Z,86.79
2018-02-05T03:19:36.210Z,86.98
2018-02-05T03:20:16.756Z,86.51
2018-02-05T03:20:57.316Z,86.79
2018-02-05T03:21:37.851Z,86.98
2018-02-05T03:22:18.439Z,86.98
2018-02-05T03:22:58.997Z,86.41
2018-02-05T03:23:39.561Z,86.98
2018-02-05T03:24:20.135Z,86.6
2018-02-05T03:25:00.661Z,86.89
2018-02-05T03:25:41.233Z,86.7
2018-02-05T03:26:21.788Z,86.51
2018-02-05T03:27:02.351Z,86.7
2018-02-05T03:27:42.923Z,87.08
2018-02-05T03:28:23.536Z,86.98
2018-02-05T03:29:04.105Z,86.79
2018-02-05T03:29:44.641Z,86.7
2018-02-05T03:30:25.369Z,86.79
2018-02-05T03:31:05.871Z,86.98
2018-02-05T03:31:46.439Z,87.08
2018-02-05T03:32:27.008Z,86.6
2018-02-05T03:33:07.565Z,86.6
2018-02-05T03:33:48.130Z,86.41
2018-02-05T03:34:28.710Z,86.51
2018-02-05T03:35:09.266Z,86.51
2018-02-05T03:35:49.823Z,86.51
2018-02-05T03:36:30.372Z,86.51
2018-02-05T03:37:10.905Z,86.7
2018-02-05T03:37:51.475Z,86.51
2018-02-05T03:38:32.037Z,86.41
2018-02-05T03:39:12.602Z,86.7
2018-02-05T03:39:53.186Z,86.79
2018-02-05T03:40:33.724Z,86.6
2018-02-05T03:41:14.261Z,86.6
2018-02-05T03:41:54.837Z,86.6
2018-02-05T03:42:35.382Z,86.79
2018-02-05T03:43:15.950Z,86.6
2018-02-05T03:43:56.561Z,86.41
2018-02-05T03:44:37.107Z,86.89
2018-02-05T03:45:17.649Z,86.41
2018-02-05T03:45:58.218Z,86.7
2018-02-05T03:46:38.786Z,86.6
2018-02-05T03:47:19.347Z,86.13
2018-02-05T03:47:59.879Z,85.94
2018-02-05T03:48:40.414Z,86.13
2018-02-05T03:49:20.974Z,86.04
2018-02-05T03:50:01.522Z,86.04
2018-02-05T03:50:42.075Z,86.41
2018-02-05T03:51:22.625Z,86.22
2018-02-05T03:52:03.231Z,86.22
2018-02-05T03:52:43.775Z,86.13
2018-02-05T03:53:24.344Z,85.85
2018-02-05T03:54:04.906Z,86.13
2018-02-05T03:54:45.476Z,85.66
2018-02-05T03:55:25.998Z,85.85
2018-02-05T03:56:06.578Z,86.13
2018-02-05T03:56:47.156Z,86.41
2018-02-05T03:57:27.707Z,86.41
2018-02-05T03:58:08.276Z,86.32
2018-02-05T03:58:48.885Z,86.32
2018-02-05T03:59:29.462Z,86.22
2018-02-05T04:00:10.078Z,85.85
2018-02-05T04:00:50.635Z,85.85
2018-02-05T04:01:31.232Z,85.75
2018-02-05T04:02:11.794Z,85.85
2018-02-05T04:02:52.344Z,85.94
2018-02-05T04:03:32.920Z,85.57
2018-02-05T04:04:13.486Z,86.13
2018-02-05T04:04:54.020Z,86.41
2018-02-05T04:05:34.571Z,86.41
2018-02-05T04:06:15.126Z,86.32
2018-02-05T04:06:55.680Z,86.13
2018-02-05T04:07:36.246Z,85.66
2018-02-05T04:08:16.802Z,85.66
2018-02-05T04:08:57.350Z,85.85
2018-02-05T04:09:37.920Z,85.66
2018-02-05T04:10:18.511Z,85.75
2018-02-05T04:10:59.041Z,86.32
2018-02-05T04:11:39.615Z,86.32
2018-02-05T04:12:20.234Z,86.41
2018-02-05T04:13:00.783Z,86.32
2018-02-05T04:13:41.308Z,86.32
2018-02-05T04:14:21.902Z,86.13
2018-02-05T04:15:02.435Z,86.04
2018-02-05T04:15:43.043Z,85.94
2018-02-05T04:16:23.603Z,86.13
2018-02-05T04:17:04.163Z,86.22
2018-02-05T04:17:44.739Z,86.13
2018-02-05T04:18:25.272Z,86.13
2018-02-05T04:19:05.844Z,86.22
2018-02-05T04:19:46.374Z,86.04
2018-02-05T04:20:26.906Z,85.94
2018-02-05T04:21:07.477Z,85.94
2018-02-05T04:21:48.058Z,85.94
2018-02-05T04:22:28.647Z,86.04
2018-02-05T04:23:09.197Z,86.32
2018-02-05T04:23:49.775Z,86.41
2018-02-05T04:24:30.405Z,86.13
2018-02-05T04:25:10.970Z,85.75
2018-02-05T04:25:51.492Z,85.75
2018-02-05T04:26:32.036Z,85.85
2018-02-05T04:27:12.609Z,85.94
2018-02-05T04:27:53.185Z,85.57
2018-02-05T04:28:33.772Z,85.75
2018-02-05T04:29:14.348Z,85.75
2018-02-05T04:29:54.913Z,85.75
2018-02-05T04:30:35.464Z,85.85
2018-02-05T04:31:16.041Z,85.66
2018-02-05T04:31:56.601Z,85.66
2018-02-05T04:32:37.151Z,85.75
2018-02-05T04:33:17.687Z,85.85
2018-02-05T04:33:58.293Z,85.38
2018-02-05T04:34:38.831Z,85.38
2018-02-05T04:35:19.399Z,85.28
2018-02-05T04:35:59.972Z,85
2018-02-05T04:36:40.504Z,85.28
2018-02-05T04:37:21.092Z,85.09
2018-02-05T04:38:01.660Z,85.28
2018-02-05T04:38:42.284Z,84.61
2018-02-05T04:39:22.830Z,84.81
2018-02-05T04:40:03.407Z,84.81
2018-02-05T04:40:44.002Z,84.81
2018-02-05T04:41:24.583Z,84.81
2018-02-05T04:42:05.220Z,84.61
2018-02-05T04:42:45.737Z,84.9
2018-02-05T04:43:26.322Z,84.71
2018-02-05T04:44:06.886Z,84.61
2018-02-05T04:44:47.437Z,85.28
2018-02-05T04:45:27.978Z,84.61
2018-02-05T04:46:08.681Z,84.81
2018-02-05T04:46:49.240Z,85
2018-02-05T04:47:29.792Z,84.61
2018-02-05T04:48:10.358Z,84.81
2018-02-05T04:48:50.889Z,84.52
2018-02-05T04:49:31.469Z,84.61
2018-02-05T04:50:12.033Z,84.71
2018-02-05T04:50:52.625Z,84.52
2018-02-05T04:51:33.211Z,84.61
2018-02-05T04:52:13.784Z,84.42
2018-02-05T04:52:54.352Z,84.33
2018-02-05T04:53:34.944Z,84.33
2018-02-05T04:54:15.490Z,84.33
2018-02-05T04:54:56.070Z,84.52
2018-02-05T04:55:36.619Z,84.23
2018-02-05T04:56:17.168Z,84.33
2018-02-05T04:56:57.746Z,84.33
2018-02-05T04:57:38.326Z,84.33
2018-02-05T04:58:18.870Z,84.33
2018-02-05T04:58:59.425Z,84.33
2018-02-05T04:59:40.031Z,84.14
2018-02-05T05:00:20.602Z,83.95
2018-02-05T05:01:01.158Z,83.86
2018-02-05T05:01:41.732Z,84.14
2018-02-05T05:02:22.371Z,83.86
2018-02-05T05:03:02.888Z,83.67
2018-02-05T05:03:43.463Z,83.86
2018-02-05T05:04:24.036Z,84.14
2018-02-05T05:05:04.598Z,84.14
2018-02-05T05:05:45.148Z,83.86
2018-02-05T05:06:25.753Z,84.14
2018-02-05T05:07:06.254Z,84.05
2018-02-05T05:07:46.818Z,84.14
2018-02-05T05:08:27.343Z,84.05
2018-02-05T05:09:07.948Z,83.95
2018-02-05T05:09:48.506Z,84.05
2018-02-05T05:10:29.087Z,83.95
2018-02-05T05:11:09.666Z,84.23
2018-02-05T05:11:50.203Z,83.95
2018-02-05T05:12:30.750Z,84.33
2018-02-05T05:13:11.310Z,84.23
2018-02-05T05:13:51.857Z,84.33
2018-02-05T05:14:32.475Z,84.23
2018-02-05T05:15:13.047Z,83.86
2018-02-05T05:15:53.580Z,84.52
2018-02-05T05:16:34.133Z,84.05
2018-02-05T05:17:14.683Z,84.2
2018-02-05T05:17:55.246Z,84.23
2018-02-05T05:18:35.790Z,84.33
2018-02-05T05:19:16.359Z,84.42
2018-02-05T05:19:56.945Z,83.95
2018-02-05T05:20:37.496Z,84.14
2018-02-05T05:21:18.072Z,84.9
2018-02-05T05:21:58.624Z,84.81
2018-02-05T05:22:39.159Z,84.48
2018-02-05T05:23:19.714Z,84.52
2018-02-05T05:24:00.256Z,84.58
2018-02-05T05:24:40.794Z,84.52
2018-02-05T05:25:21.354Z,84.61
2018-02-05T05:26:01.903Z,84.61
2018-02-05T05:26:42.453Z,84.33
2018-02-05T05:27:23.005Z,84.52
2018-02-05T05:28:03.552Z,84.33
2018-02-05T05:28:44.125Z,84.14
2018-02-05T05:29:24.724Z,84.01
2018-02-05T05:30:05.268Z,84.14
2018-02-05T05:30:45.814Z,84.42
2018-02-05T05:31:26.369Z,84.29
2018-02-05T05:32:06.956Z,84.29
2018-02-05T05:32:47.496Z,84.1
2018-02-05T05:33:28.053Z,84.77
2018-02-05T05:34:08.645Z,84.67
2018-02-05T05:34:49.225Z,84.48
2018-02-05T05:35:29.757Z,84.77
2018-02-05T05:36:10.328Z,84.48
2018-02-05T05:36:50.878Z,84.86
2018-02-05T05:37:31.442Z,85.14
2018-02-05T05:38:12.051Z,85.24
2018-02-05T05:38:52.622Z,85.05
2018-02-05T05:39:33.188Z,85.14
2018-02-05T05:40:13.775Z,84.95
2018-02-05T05:40:54.336Z,85.05
2018-02-05T05:41:34.919Z,84.77
2018-02-05T05:42:15.486Z,85.14
2018-02-05T05:42:56.127Z,85.24
2018-02-05T05:43:36.699Z,85.33
2018-02-05T05:44:17.322Z,85.33
2018-02-05T05:44:57.867Z,85.33
2018-02-05T05:45:38.428Z,85.8
2018-02-05T05:46:19.017Z,85.61
2018-02-05T05:46:59.584Z,85.42
2018-02-05T05:47:40.136Z,85.61
2018-02-05T05:48:20.691Z,85.8
2018-02-05T05:49:01.241Z,85.71
2018-02-05T05:49:41.792Z,85.8
2018-02-05T05:50:22.353Z,84.86
2018-02-05T05:51:02.902Z,85.8
2018-02-05T05:51:43.459Z,85.8
2018-02-05T05:52:24.055Z,85.61
2018-02-05T05:53:04.630Z,85.71
2018-02-05T05:53:45.192Z,85.71
2018-02-05T05:54:25.730Z,85.71
2018-02-05T05:55:06.318Z,85.61
2018-02-05T05:55:46.838Z,85.71
2018-02-05T05:56:27.383Z,85.52
2018-02-05T05:57:07.937Z,85.52
2018-02-05T05:57:48.517Z,85.61
2018-02-05T05:58:29.067Z,85.9
2018-02-05T05:59:09.652Z,85.8
2018-02-05T05:59:50.226Z,85.71
2018-02-05T06:00:30.763Z,85.8
2018-02-05T06:01:11.309Z,85.9
2018-02-05T06:01:51.867Z,85.8
2018-02-05T06:02:32.441Z,85.8
2018-02-05T06:03:13.009Z,86.09
2018-02-05T06:03:53.571Z,86.37
2018-02-05T06:04:34.113Z,86.28
2018-02-05T06:05:14.670Z,86.37
2018-02-05T06:05:55.242Z,86.28
2018-02-05T06:06:35.828Z,86.28
2018-02-05T06:07:16.427Z,86.37
2018-02-05T06:07:57.003Z,86.18
2018-02-05T06:08:37.584Z,85.8
2018-02-05T06:09:18.161Z,86.09
2018-02-05T06:09:58.750Z,86.28
2018-02-05T06:10:39.333Z,86.37
2018-02-05T06:11:19.882Z,86.37
2018-02-05T06:12:00.459Z,86.37
2018-02-05T06:12:41.013Z,86.28
2018-02-05T06:13:21.570Z,86.28
2018-02-05T06:14:02.133Z,85.9
2018-02-05T06:14:42.691Z,86.09
2018-02-05T06:15:23.243Z,85.9
2018-02-05T06:16:03.797Z,86.47
2018-02-05T06:16:44.404Z,86.47
2018-02-05T06:17:25.068Z,85.99
2018-02-05T06:18:05.634Z,86.18
2018-02-05T06:18:46.252Z,86.09
2018-02-05T06:19:26.837Z,85.99
2018-02-05T06:20:07.410Z,85.99
2018-02-05T06:20:47.985Z,86.18
2018-02-05T06:21:28.569Z,86.28
2018-02-05T06:22:09.116Z,85.8
2018-02-05T06:22:49.667Z,85.71
2018-02-05T06:23:30.210Z,85.9
2018-02-05T06:24:10.750Z,85.71
2018-02-05T06:24:51.297Z,85.52
2018-02-05T06:25:31.864Z,85.71
2018-02-05T06:26:12.406Z,85.61
2018-02-05T06:26:52.955Z,85.61
2018-02-05T06:27:33.536Z,85.61
2018-02-05T06:28:14.065Z,85.71
2018-02-05T06:28:54.629Z,85.8
2018-02-05T06:29:35.197Z,85.52
2018-02-05T06:30:15.755Z,85.61
2018-02-05T06:30:56.311Z,85.52
2018-02-05T06:31:36.876Z,85.61
2018-02-05T06:32:17.432Z,85.9
2018-02-05T06:32:57.997Z,85.24
2018-02-05T06:33:38.559Z,85.24
2018-02-05T06:34:19.111Z,84.86
2018-02-05T06:34:59.747Z,85.8
2018-02-05T06:35:40.280Z,85.9
2018-02-05T06:36:20.829Z,85.8
2018-02-05T06:37:01.386Z,85.61
2018-02-05T06:37:41.942Z,85.24
2018-02-05T06:38:22.489Z,85.42
2018-02-05T06:39:03.056Z,84.86
2018-02-05T06:39:43.635Z,84.95
2018-02-05T06:40:24.200Z,84.86
2018-02-05T06:41:04.751Z,84.86
2018-02-05T06:41:45.352Z,84.58
2018-02-05T06:42:25.908Z,84.2
2018-02-05T06:43:06.458Z,84.2
2018-02-05T06:43:46.995Z,83.91
2018-02-05T06:44:27.580Z,83.91
2018-02-05T06:45:08.110Z,84.2
2018-02-05T06:45:48.672Z,84.58
2018-02-05T06:46:29.266Z,84.48
2018-02-05T06:47:09.791Z,84.48
2018-02-05T06:47:50.324Z,84.67
2018-02-05T06:48:30.904Z,84.67
2018-02-05T06:49:11.475Z,84.67
2018-02-05T06:49:52.046Z,84.58
2018-02-05T06:50:32.598Z,84.58
2018-02-05T06:51:13.163Z,84.77
2018-02-05T06:51:53.725Z,84.77
2018-02-05T06:52:34.279Z,84.58
2018-02-05T06:53:14.826Z,84.67
2018-02-05T06:53:55.387Z,84.48
2018-02-05T06:54:35.955Z,84.58
2018-02-05T06:55:16.526Z,84.58
2018-02-05T06:55:57.057Z,84.48
2018-02-05T06:56:37.611Z,84.67
2018-02-05T06:57:18.158Z,84.58
2018-02-05T06:57:58.763Z,84.67
2018-02-05T06:58:39.297Z,84.67
2018-02-05T06:59:19.872Z,84.48
2018-02-05T07:00:00.449Z,84.58
2018-02-05T07:00:40.991Z,84.58
2018-02-05T07:01:21.518Z,84.67
2018-02-05T07:02:02.088Z,84.77
2018-02-05T07:02:42.624Z,84.39
2018-02-05T07:03:23.231Z,84.48
2018-02-05T07:04:03.769Z,84.29
2018-02-05T07:04:44.384Z,84.29
2018-02-05T07:05:24.949Z,84.29
2018-02-05T07:06:05.513Z,84.67
2018-02-05T07:06:46.080Z,84.48
2018-02-05T07:07:26.660Z,84.67
2018-02-05T07:08:07.200Z,84.48
2018-02-05T07:08:47.773Z,84.39
2018-02-05T07:09:28.332Z,84.48
2018-02-05T07:10:08.894Z,84.48
2018-02-05T07:10:49.443Z,84.39
2018-02-05T07:11:30.025Z,84.58
2018-02-05T07:12:10.600Z,84.39
2018-02-05T07:12:51.138Z,84.48
2018-02-05T07:13:31.708Z,84.58
2018-02-05T07:14:12.290Z,84.77
2018-02-05T07:14:52.846Z,84.67
2018-02-05T07:15:33.413Z,84.77
2018-02-05T07:16:13.998Z,84.67
2018-02-05T07:16:54.523Z,84.48
2018-02-05T07:17:35.080Z,84.77
2018-02-05T07:18:15.653Z,85.05
2018-02-05T07:18:56.202Z,84.58
2018-02-05T07:19:36.813Z,84.67
2018-02-05T07:20:17.430Z,84.48
2018-02-05T07:20:58.013Z,84.58
2018-02-05T07:21:38.545Z,84.77
2018-02-05T07:22:19.121Z,84.39
2018-02-05T07:22:59.864Z,84.1
2018-02-05T07:23:40.695Z,84.2
2018-02-05T07:24:21.266Z,84.01
2018-02-05T07:25:01.829Z,83.91
2018-02-05T07:25:42.412Z,84.01
2018-02-05T07:26:23.040Z,83.82
2018-02-05T07:27:03.584Z,83.44
2018-02-05T07:27:44.109Z,83.72
2018-02-05T07:28:24.657Z,83.25
2018-02-05T07:29:05.203Z,83.91
2018-02-05T07:29:45.777Z,83.44
2018-02-05T07:30:26.355Z,83.44
2018-02-05T07:31:06.905Z,83.44
2018-02-05T07:31:47.459Z,83.34
2018-02-05T07:32:28.042Z,83.48
2018-02-05T07:33:08.607Z,83.53
2018-02-05T07:33:49.157Z,83.58
2018-02-05T07:34:29.874Z,83.58
2018-02-05T07:35:10.633Z,83.58
2018-02-05T07:35:51.250Z,83.39
2018-02-05T07:36:31.847Z,83.86
2018-02-05T07:37:12.443Z,83.67
2018-02-05T07:37:53.059Z,83.95
2018-02-05T07:38:33.657Z,83.39
2018-02-05T07:39:14.292Z,83.58
2018-02-05T07:39:54.901Z,83.76
2018-02-05T07:40:35.475Z,83.2
2018-02-05T07:41:16.048Z,83.2
2018-02-05T07:41:56.609Z,83.01
2018-02-05T07:42:37.169Z,83.1
2018-02-05T07:43:17.747Z,83.01
2018-02-05T07:43:58.308Z,82.91
2018-02-05T07:44:38.923Z,82.91
2018-02-05T07:45:19.533Z,82.91
2018-02-05T07:46:00.165Z,82.82
2018-02-05T07:46:40.709Z,82.82
2018-02-05T07:47:21.326Z,82.25
2018-02-05T07:48:01.874Z,82.53
2018-02-05T07:48:42.422Z,82.15
2018-02-05T07:49:22.991Z,82.53
2018-02-05T07:50:03.558Z,82.34
2018-02-05T07:50:44.135Z,82.21
2018-02-05T07:51:24.702Z,82.15
2018-02-05T07:52:05.270Z,82.06
2018-02-05T07:52:45.846Z,82.91
2018-02-05T07:53:26.406Z,82.06
2018-02-05T07:54:06.965Z,82.31
2018-02-05T07:54:47.483Z,82.34
2018-02-05T07:55:28.097Z,82.34
2018-02-05T07:56:08.692Z,82.25
2018-02-05T07:56:49.316Z,82.21
2018-02-05T07:57:29.888Z,82.72
2018-02-05T07:58:10.440Z,82.53
2018-02-05T07:58:50.975Z,82.31
2018-02-05T07:59:31.527Z,82.63
2018-02-05T08:00:12.076Z,82.34
2018-02-05T08:00:52.606Z,81.96
2018-02-05T08:01:33.236Z,82.15
2018-02-05T08:02:13.792Z,82.34
2018-02-05T08:02:54.368Z,82.34
2018-02-05T08:03:34.920Z,82.44
2018-02-05T08:04:15.518Z,82.53
2018-02-05T08:04:56.082Z,82.72
2018-02-05T08:05:36.678Z,82.53
2018-02-05T08:06:17.261Z,82.53
2018-02-05T08:06:57.807Z,82.63
2018-02-05T08:07:38.368Z,82.63
2018-02-05T08:08:18.876Z,82.72
2018-02-05T08:08:59.449Z,82.25
2018-02-05T08:09:40.007Z,82.15
2018-02-05T08:10:20.555Z,82.25
2018-02-05T08:11:01.106Z,82.15
2018-02-05T08:11:41.678Z,82.06
2018-02-05T08:12:22.234Z,82.25
2018-02-05T08:13:02.907Z,81.96
2018-02-05T08:13:43.412Z,82.06
2018-02-05T08:14:24.013Z,82.06
2018-02-05T08:15:04.559Z,81.87
2018-02-05T08:15:45.129Z,81.59
2018-02-05T08:16:25.708Z,81.59
2018-02-05T08:17:06.253Z,81.59
2018-02-05T08:17:46.795Z,81.21
2018-02-05T08:18:27.370Z,81.3
2018-02-05T08:19:07.986Z,81.49
2018-02-05T08:19:48.543Z,81.3
2018-02-05T08:20:29.090Z,81.12
2018-02-05T08:21:09.626Z,81.02
2018-02-05T08:21:50.196Z,80.64
2018-02-05T08:22:30.794Z,79.88
2018-02-05T08:23:11.355Z,80.07
2018-02-05T08:23:51.920Z,79.88
2018-02-05T08:24:32.457Z,79.79
2018-02-05T08:25:13.030Z,80.07
2018-02-05T08:25:53.595Z,80.55
2018-02-05T08:26:34.142Z,80.83
2018-02-05T08:27:14.753Z,80.83
2018-02-05T08:27:55.279Z,80.83
2018-02-05T08:28:35.855Z,80.74
2018-02-05T08:29:16.411Z,79.79
2018-02-05T08:29:56.979Z,80.07
2018-02-05T08:30:37.619Z,80.36
2018-02-05T08:31:18.176Z,79.98
2018-02-05T08:31:58.797Z,79.88
2018-02-05T08:32:39.356Z,79.79
2018-02-05T08:33:20.008Z,79.79
2018-02-05T08:34:00.567Z,79.41
2018-02-05T08:34:41.135Z,78.65
2018-02-05T08:35:21.706Z,78.37
2018-02-05T08:36:02.303Z,78.75
2018-02-05T08:36:42.884Z,78.56
2018-02-05T08:37:23.430Z,78.65
2018-02-05T08:38:03.989Z,78.94
2018-02-05T08:38:44.579Z,78.65
2018-02-05T08:39:25.108Z,78.65
2018-02-05T08:40:05.673Z,78.75
2018-02-05T08:40:46.224Z,78.75
2018-02-05T08:41:26.799Z,78.56
2018-02-05T08:42:07.389Z,78.65
2018-02-05T08:42:47.986Z,78.65
2018-02-05T08:43:28.528Z,78.56
2018-02-05T08:44:09.105Z,78.75